createdAt,value
2023-04-16T00:02:01.638Z,100869.16
2023-04-16T00:04:28.465Z,100862.06
2023-04-16T00:06:58.411Z,100873.34
2023-04-16T00:09:25.106Z,100872.50
2023-04-16T00:11:51.995Z,100872.00
2023-04-16T00:14:18.848Z,100870.22
2023-04-16T00:16:46.037Z,100876.91
2023-04-16T00:19:13.502Z,100873.63
2023-04-16T00:21:40.612Z,100878.66
2023-04-16T00:24:07.450Z,100882.94
2023-04-16T00:26:34.478Z,100885.66
2023-04-16T00:29:09.677Z,100877.00
2023-04-16T00:31:37.301Z,100876.53
2023-04-16T00:34:04.188Z,100880.75
2023-04-16T00:36:31.065Z,100886.63
2023-04-16T00:38:58.130Z,100880.81
2023-04-16T00:41:25.198Z,100873.34
2023-04-16T00:43:51.915Z,100886.69
2023-04-16T00:46:24.094Z,100878.34
2023-04-16T00:48:51.617Z,100880.81
2023-04-16T00:51:18.994Z,100886.22
2023-04-16T00:53:46.704Z,100874.06
2023-04-16T00:56:13.990Z,100885.75
2023-04-16T00:58:41.125Z,100880.50
2023-04-16T01:01:07.913Z,100885.75
2023-04-16T01:03:46.796Z,100885.81
2023-04-16T01:06:14.290Z,100885.66
2023-04-16T01:08:41.109Z,100888.63
2023-04-16T01:11:08.269Z,100891.25
2023-04-16T01:13:39.295Z,100895.34
2023-04-16T01:16:08.602Z,100886.13
2023-04-16T01:18:36.929Z,100888.72
2023-04-16T01:21:16.159Z,100890.75
2023-04-16T01:23:42.859Z,100899.75
2023-04-16T01:26:09.646Z,100902.94
2023-04-16T01:28:36.544Z,100905.56
2023-04-16T01:31:03.690Z,100913.03
2023-04-16T01:33:39.270Z,100908.16
2023-04-16T01:36:20.211Z,100910.19
2023-04-16T01:38:58.033Z,100902.28
2023-04-16T01:41:32.213Z,100909.09
2023-04-16T01:44:08.927Z,100898.81
2023-04-16T01:46:53.977Z,100908.16
2023-04-16T01:49:36.884Z,100911.94
2023-04-16T01:52:18.044Z,100913.25
2023-04-16T01:54:44.843Z,100923.44
2023-04-16T01:57:19.002Z,100904.94
2023-04-16T01:59:52.517Z,100919.22
2023-04-16T02:02:32.202Z,100923.44
2023-04-16T02:04:58.948Z,100911.56
2023-04-16T02:07:28.842Z,100918.56
2023-04-16T02:10:11.538Z,100911.28
2023-04-16T02:12:44.706Z,100920.75
2023-04-16T02:15:38.259Z,100929.56
2023-04-16T02:18:07.934Z,100920.81
2023-04-16T02:21:04.020Z,100928.09
2023-04-16T02:23:37.421Z,100930.44
2023-04-16T02:26:08.323Z,100940.56
2023-04-16T02:28:34.980Z,100931.31
2023-04-16T02:31:12.929Z,100927.00
2023-04-16T02:33:45.362Z,100933.25
2023-04-16T02:36:21.221Z,100928.28
2023-04-16T02:38:47.880Z,100934.63
2023-04-16T02:41:31.556Z,100945.66
2023-04-16T02:44:04.255Z,100945.88
2023-04-16T02:46:34.065Z,100940.72
2023-04-16T02:49:04.316Z,100930.97
2023-04-16T02:51:36.623Z,100938.81
2023-04-16T02:54:07.798Z,100953.03
2023-04-16T02:56:39.558Z,100949.00
2023-04-16T02:59:24.738Z,100950.59
2023-04-16T03:01:53.511Z,100952.47
2023-04-16T03:04:31.521Z,100943.13
2023-04-16T03:07:14.248Z,100938.66
2023-04-16T03:09:45.481Z,100949.38
2023-04-16T03:12:16.063Z,100951.13
2023-04-16T03:15:02.489Z,100952.97
2023-04-16T03:17:34.278Z,100956.13
2023-04-16T03:20:13.934Z,100964.25
2023-04-16T03:22:41.712Z,100954.75
2023-04-16T03:25:16.675Z,100955.59
2023-04-16T03:27:46.471Z,100962.84
2023-04-16T03:30:33.995Z,100962.91
2023-04-16T03:33:07.205Z,100964.06
2023-04-16T03:38:39.391Z,100964.00
2023-04-16T03:41:09.201Z,100971.81
2023-04-16T03:43:46.460Z,100963.25
2023-04-16T03:46:24.330Z,100962.56
2023-04-16T03:48:59.466Z,100973.59
2023-04-16T03:51:26.935Z,100973.84
2023-04-16T03:53:57.414Z,100973.53
2023-04-16T03:56:33.697Z,100990.91
2023-04-16T03:59:05.488Z,100987.41
2023-04-16T04:02:04.854Z,100987.13
2023-04-16T04:04:43.577Z,100988.66
2023-04-16T04:07:23.498Z,101002.63
2023-04-16T04:09:55.224Z,100991.28
2023-04-16T04:12:29.903Z,101000.28
2023-04-16T04:14:57.350Z,101005.66
2023-04-16T04:17:31.696Z,101012.47
2023-04-16T04:20:15.812Z,101014.09
2023-04-16T04:22:43.277Z,100999.41
2023-04-16T04:25:23.074Z,101016.53
2023-04-16T04:28:07.167Z,101001.78
2023-04-16T04:33:08.266Z,101019.56
2023-04-16T04:35:37.982Z,101020.88
2023-04-16T04:38:22.168Z,101015.06
2023-04-16T04:40:57.646Z,101018.34
2023-04-16T04:43:32.544Z,101025.19
2023-04-16T04:46:06.477Z,101016.25
2023-04-16T04:48:38.995Z,101037.50
2023-04-16T04:51:24.003Z,101026.84
2023-04-16T04:54:03.362Z,101035.72
2023-04-16T04:56:46.298Z,101036.66
2023-04-16T04:59:26.636Z,101032.69
2023-04-16T05:01:57.086Z,101030.16
2023-04-16T05:04:28.301Z,101039.22
2023-04-16T05:07:07.154Z,101043.88
2023-04-16T05:09:38.946Z,101052.88
2023-04-16T05:12:06.663Z,101041.16
2023-04-16T05:14:34.128Z,101045.69
2023-04-16T05:17:08.121Z,101047.31
2023-04-16T05:19:34.964Z,101044.44
2023-04-16T05:22:21.785Z,101063.81
2023-04-16T05:24:53.920Z,101067.31
2023-04-16T05:27:47.194Z,101062.44
2023-04-16T05:30:13.958Z,101067.94
2023-04-16T05:32:49.481Z,101054.28
2023-04-16T05:35:35.800Z,101069.97
2023-04-16T05:38:10.631Z,101066.00
2023-04-16T05:40:37.361Z,101067.63
2023-04-16T05:43:04.232Z,101067.19
2023-04-16T05:45:33.594Z,101075.88
2023-04-16T05:48:06.240Z,101071.53
2023-04-16T05:50:35.923Z,101064.53
2023-04-16T05:53:04.345Z,101079.00
2023-04-16T05:55:31.040Z,101085.88
2023-04-16T05:58:00.970Z,101092.06
2023-04-16T06:00:28.249Z,101093.00
2023-04-16T06:02:58.134Z,101094.34
2023-04-16T06:05:31.107Z,101095.69
2023-04-16T06:07:59.122Z,101100.31
2023-04-16T06:10:25.812Z,101102.28
2023-04-16T06:12:53.351Z,101108.22
2023-04-16T06:15:19.944Z,101103.59
2023-04-16T06:17:52.687Z,101108.22
2023-04-16T06:20:34.236Z,101098.69
2023-04-16T06:23:13.925Z,101107.28
2023-04-16T06:25:48.620Z,101116.25
2023-04-16T06:28:15.505Z,101120.56
2023-04-16T06:30:45.224Z,101116.25
2023-04-16T06:33:12.764Z,101113.31
2023-04-16T06:35:39.426Z,101120.38
2023-04-16T06:38:12.279Z,101117.59
2023-04-16T06:40:51.777Z,101113.41
2023-04-16T06:43:18.403Z,101124.19
2023-04-16T06:45:51.581Z,101128.16
2023-04-16T06:48:24.480Z,101124.19
2023-04-16T06:50:55.813Z,101109.63
2023-04-16T06:53:25.879Z,101125.38
2023-04-16T06:55:59.097Z,101120.84
2023-04-16T06:58:51.445Z,101137.19
2023-04-16T07:01:27.230Z,101140.41
2023-04-16T07:04:13.297Z,101138.13
2023-04-16T07:06:53.765Z,101129.69
2023-04-16T07:09:25.477Z,101138.38
2023-04-16T07:12:05.930Z,101147.91
2023-04-16T07:14:40.224Z,101131.44
2023-04-16T07:17:07.212Z,101142.41
2023-04-16T07:19:40.033Z,101135.00
2023-04-16T07:22:24.316Z,101149.25
2023-04-16T07:24:51.666Z,101155.31
2023-04-16T07:27:19.148Z,101154.50
2023-04-16T07:29:46.155Z,101158.25
2023-04-16T07:32:15.298Z,101158.19
2023-04-16T07:34:42.447Z,101166.28
2023-04-16T07:37:09.194Z,101165.94
2023-04-16T07:39:35.987Z,101161.16
2023-04-16T07:42:02.841Z,101170.25
2023-04-16T07:44:31.147Z,101171.84
2023-04-16T07:46:58.050Z,101176.75
2023-04-16T07:49:24.855Z,101176.84
2023-04-16T07:51:51.785Z,101182.16
2023-04-16T07:54:20.764Z,101184.69
2023-04-16T07:59:30.924Z,101188.38
2023-04-16T08:01:57.696Z,101178.84
2023-04-16T08:04:38.678Z,101189.91
2023-04-16T08:07:08.019Z,101196.66
2023-04-16T08:09:37.598Z,101200.78
2023-04-16T08:12:04.514Z,101198.28
2023-04-16T08:14:38.925Z,101202.97
2023-04-16T08:17:05.849Z,101204.72
2023-04-16T08:19:32.644Z,101204.16
2023-04-16T08:21:59.970Z,101203.91
2023-04-16T08:24:42.185Z,101206.59
2023-04-16T08:27:18.608Z,101204.41
2023-04-16T08:29:48.256Z,101208.81
2023-04-16T08:32:15.026Z,101215.03
2023-04-16T08:34:48.803Z,101210.63
2023-04-16T08:37:15.569Z,101220.16
2023-04-16T08:39:42.262Z,101223.31
2023-04-16T08:42:30.314Z,101220.59
2023-04-16T08:45:08.689Z,101218.00
2023-04-16T08:47:39.404Z,101221.00
2023-04-16T08:50:06.684Z,101228.25
2023-04-16T08:52:49.486Z,101231.56
2023-04-16T08:55:30.238Z,101226.91
2023-04-16T08:58:07.859Z,101224.31
2023-04-16T09:00:35.519Z,101235.34
2023-04-16T09:03:07.231Z,101230.72
2023-04-16T09:05:34.993Z,101239.06
2023-04-16T09:08:04.799Z,101245.41
2023-04-16T09:10:32.023Z,101248.13
2023-04-16T09:12:59.006Z,101249.53
2023-04-16T09:15:47.367Z,101246.25
2023-04-16T09:18:26.811Z,101260.31
2023-04-16T09:20:57.983Z,101256.97
2023-04-16T09:23:25.194Z,101259.09
2023-04-16T09:25:51.763Z,101261.50
2023-04-16T09:28:47.525Z,101258.81
2023-04-16T09:31:18.496Z,101254.03
2023-04-16T09:34:04.723Z,101269.78
2023-04-16T09:36:32.731Z,101270.13
2023-04-16T09:39:00.931Z,101268.00
2023-04-16T09:41:30.272Z,101269.34
2023-04-16T09:43:58.288Z,101277.88
2023-04-16T09:46:45.252Z,101274.09
2023-04-16T09:49:17.654Z,101285.56
2023-04-16T09:51:49.750Z,101278.97
2023-04-16T09:54:16.643Z,101279.56
2023-04-16T09:56:45.172Z,101282.28
2023-04-16T09:59:21.933Z,101286.28
2023-04-16T10:02:14.781Z,101288.25
2023-04-16T10:04:51.425Z,101287.41
2023-04-16T10:07:19.077Z,101286.16
2023-04-16T10:09:48.541Z,101290.03
2023-04-16T10:12:16.065Z,101291.53
2023-04-16T10:14:43.048Z,101293.16
2023-04-16T10:17:10.183Z,101294.84
2023-04-16T10:19:37.472Z,101294.13
2023-04-16T10:22:04.389Z,101295.94
2023-04-16T10:24:32.747Z,101296.50
2023-04-16T10:27:00.193Z,101292.28
2023-04-16T10:29:32.125Z,101301.59
2023-04-16T10:32:00.596Z,101306.69
2023-04-16T10:34:29.096Z,101303.88
2023-04-16T10:36:56.126Z,101304.13
2023-04-16T10:39:24.316Z,101308.66
2023-04-16T10:42:06.348Z,101307.00
2023-04-16T10:44:33.568Z,101303.28
2023-04-16T10:47:00.213Z,101298.22
2023-04-16T10:49:27.219Z,101314.28
2023-04-16T10:52:04.750Z,101311.41
2023-04-16T10:54:31.861Z,101303.22
2023-04-16T10:57:04.724Z,101309.28
2023-04-16T10:59:34.915Z,101318.13
2023-04-16T11:02:08.669Z,101316.63
2023-04-16T11:04:37.593Z,101314.38
2023-04-16T11:07:07.400Z,101319.91
2023-04-16T11:09:51.335Z,101317.84
2023-04-16T11:12:20.859Z,101317.53
2023-04-16T11:14:50.098Z,101320.41
2023-04-16T11:17:16.881Z,101326.25
2023-04-16T11:19:43.726Z,101330.47
2023-04-16T11:22:14.050Z,101323.47
2023-04-16T11:24:41.286Z,101323.63
2023-04-16T11:27:08.724Z,101315.53
2023-04-16T11:29:35.454Z,101328.34
2023-04-16T11:32:02.584Z,101330.28
2023-04-16T11:34:29.469Z,101332.50
2023-04-16T11:36:56.165Z,101343.56
2023-04-16T11:39:23.348Z,101331.56
2023-04-16T11:41:52.381Z,101337.38
2023-04-16T11:44:18.913Z,101346.00
2023-04-16T11:46:45.614Z,101340.09
2023-04-16T11:49:12.491Z,101346.44
2023-04-16T11:51:46.926Z,101344.06
2023-04-16T11:54:21.168Z,101342.31
2023-04-16T11:56:49.817Z,101353.78
2023-04-16T11:59:23.160Z,101345.91
2023-04-16T12:01:57.866Z,101343.38
2023-04-16T12:04:27.275Z,101352.06
2023-04-16T12:07:14.064Z,101356.41
2023-04-16T12:09:41.991Z,101347.41
2023-04-16T12:12:31.134Z,101349.28
2023-04-16T12:15:03.791Z,101349.78
2023-04-16T12:17:32.128Z,101348.13
2023-04-16T12:20:01.084Z,101352.47
2023-04-16T12:22:36.823Z,101348.28
2023-04-16T12:25:10.712Z,101359.28
2023-04-16T12:27:52.974Z,101356.75
2023-04-16T12:30:22.501Z,101363.16
2023-04-16T12:32:51.898Z,101355.03
2023-04-16T12:35:34.308Z,101357.91
2023-04-16T12:38:01.563Z,101360.88
2023-04-16T12:40:28.344Z,101362.38
2023-04-16T12:42:55.377Z,101353.28
2023-04-16T12:45:22.352Z,101360.44
2023-04-16T12:47:50.542Z,101360.09
2023-04-16T12:50:18.026Z,101362.50
2023-04-16T12:52:44.814Z,101368.22
2023-04-16T12:55:12.047Z,101363.56
2023-04-16T12:57:38.632Z,101358.69
2023-04-16T13:00:06.752Z,101363.22
2023-04-16T13:02:34.235Z,101362.56
2023-04-16T13:05:00.933Z,101362.63
2023-04-16T13:07:28.305Z,101373.13
2023-04-16T13:09:54.975Z,101369.00
2023-04-16T13:12:21.645Z,101373.94
2023-04-16T13:14:48.280Z,101372.44
2023-04-16T13:17:16.206Z,101376.88
2023-04-16T13:19:42.859Z,101378.09
2023-04-16T13:22:09.774Z,101377.09
2023-04-16T13:24:36.627Z,101379.94
2023-04-16T13:27:03.244Z,101385.69
2023-04-16T13:29:30.202Z,101383.31
2023-04-16T13:31:57.589Z,101383.59
2023-04-16T13:34:24.218Z,101385.84
2023-04-16T13:36:50.870Z,101380.28
2023-04-16T13:39:17.605Z,101380.94
2023-04-16T13:41:44.248Z,101383.50
2023-04-16T13:44:11.060Z,101385.91
2023-04-16T13:46:37.773Z,101386.38
2023-04-16T13:49:04.447Z,101381.88
2023-04-16T13:51:32.293Z,101377.75
2023-04-16T13:53:58.917Z,101378.34
2023-04-16T13:56:25.704Z,101383.25
2023-04-16T13:58:52.421Z,101383.50
2023-04-16T14:01:19.606Z,101383.16
2023-04-16T14:03:46.477Z,101378.44
2023-04-16T14:06:13.873Z,101384.59
2023-04-16T14:08:40.666Z,101386.22
2023-04-16T14:11:07.678Z,101390.03
2023-04-16T14:13:34.392Z,101387.03
2023-04-16T14:16:02.974Z,101394.38
2023-04-16T14:18:29.735Z,101393.50
2023-04-16T14:20:56.412Z,101395.06
2023-04-16T14:23:24.635Z,101393.34
2023-04-16T14:25:51.231Z,101394.91
2023-04-16T14:28:17.869Z,101393.28
2023-04-16T14:30:44.545Z,101397.44
2023-04-16T14:33:11.386Z,101395.97
2023-04-16T14:35:38.015Z,101388.28
2023-04-16T14:38:04.755Z,101398.69
2023-04-16T14:40:31.402Z,101388.31
2023-04-16T14:42:58.070Z,101398.25
2023-04-16T14:45:29.031Z,101395.72
2023-04-16T14:47:55.999Z,101391.47
2023-04-16T14:50:28.323Z,101396.34
2023-04-16T14:52:56.025Z,101390.72
2023-04-16T14:55:22.800Z,101395.19
2023-04-16T14:58:08.414Z,101395.44
2023-04-16T15:00:36.026Z,101397.00
2023-04-16T15:03:06.722Z,101408.75
2023-04-16T15:05:40.090Z,101398.69
2023-04-16T15:08:07.309Z,101398.97
2023-04-16T15:10:35.042Z,101405.00
2023-04-16T15:13:01.704Z,101405.19
2023-04-16T15:15:28.380Z,101405.19
2023-04-16T15:17:56.994Z,101397.16
2023-04-16T15:20:23.733Z,101410.28
2023-04-16T15:22:50.519Z,101413.06
2023-04-16T15:25:17.502Z,101406.91
2023-04-16T15:27:44.110Z,101420.09
2023-04-16T15:30:12.672Z,101417.31
2023-04-16T15:32:39.363Z,101417.66
2023-04-16T15:35:06.287Z,101418.75
2023-04-16T15:37:32.933Z,101426.91
2023-04-16T15:39:59.531Z,101424.38
2023-04-16T15:42:26.325Z,101423.53
2023-04-16T15:44:52.952Z,101425.72
2023-04-16T15:47:19.558Z,101420.75
2023-04-16T15:49:46.112Z,101428.84
2023-04-16T15:52:14.120Z,101428.22
2023-04-16T15:54:41.065Z,101432.75
2023-04-16T15:57:07.742Z,101435.06
2023-04-16T15:59:34.600Z,101431.84
2023-04-16T16:02:01.411Z,101434.47
2023-04-16T16:04:28.352Z,101437.50
2023-04-16T16:06:56.319Z,101433.63
2023-04-16T16:09:27.217Z,101438.66
2023-04-16T16:11:54.429Z,101444.09
2023-04-16T16:14:22.838Z,101439.50
2023-04-16T16:16:52.351Z,101435.22
2023-04-16T16:19:19.081Z,101436.31
2023-04-16T16:21:46.175Z,101440.59
2023-04-16T16:24:12.803Z,101446.94
2023-04-16T16:26:39.416Z,101447.91
2023-04-16T16:29:07.269Z,101452.47
2023-04-16T16:31:33.996Z,101450.88
2023-04-16T16:34:01.118Z,101448.38
2023-04-16T16:36:28.400Z,101456.72
2023-04-16T16:38:55.279Z,101448.56
2023-04-16T16:41:25.101Z,101452.50
2023-04-16T16:44:02.290Z,101451.97
2023-04-16T16:46:29.661Z,101462.44
2023-04-16T16:48:56.433Z,101452.53
2023-04-16T16:51:23.111Z,101456.81
2023-04-16T16:53:50.019Z,101467.50
2023-04-16T16:56:23.164Z,101466.25
2023-04-16T16:58:58.661Z,101465.06
2023-04-16T17:01:26.397Z,101469.75
2023-04-16T17:03:53.681Z,101475.25
2023-04-16T17:06:21.440Z,101461.75
2023-04-16T17:08:55.755Z,101466.72
2023-04-16T17:11:24.914Z,101469.03
2023-04-16T17:13:51.717Z,101485.03
2023-04-16T17:16:18.760Z,101479.41
2023-04-16T17:18:45.447Z,101480.09
2023-04-16T17:21:12.394Z,101484.78
2023-04-16T17:23:41.140Z,101484.03
2023-04-16T17:26:08.123Z,101487.03
2023-04-16T17:28:58.015Z,101490.69
2023-04-16T17:31:29.742Z,101489.22
2023-04-16T17:33:56.384Z,101497.00
2023-04-16T17:36:23.344Z,101488.53
2023-04-16T17:38:51.032Z,101499.09
2023-04-16T17:41:18.125Z,101505.66
2023-04-16T17:43:51.006Z,101502.94
2023-04-16T17:46:18.258Z,101500.56
2023-04-16T17:48:44.981Z,101515.16
2023-04-16T17:51:12.125Z,101513.50
2023-04-16T17:53:39.100Z,101514.78
2023-04-16T17:56:05.902Z,101519.53
2023-04-16T17:58:35.111Z,101524.00
2023-04-16T18:01:13.213Z,101520.38
2023-04-16T18:03:40.323Z,101533.00
2023-04-16T18:06:07.145Z,101526.13
2023-04-16T18:08:36.587Z,101532.59
2023-04-16T18:11:09.476Z,101532.03
2023-04-16T18:13:36.350Z,101540.72
2023-04-16T18:16:03.364Z,101545.03
2023-04-16T18:18:30.094Z,101549.63
2023-04-16T18:20:56.886Z,101540.38
2023-04-16T18:23:33.868Z,101556.88
2023-04-16T18:26:00.667Z,101551.94
2023-04-16T18:28:30.566Z,101557.09
2023-04-16T18:30:58.893Z,101557.09
2023-04-16T18:33:54.232Z,101558.97
2023-04-16T18:36:20.128Z,101567.25
2023-04-16T18:38:59.554Z,101578.34
2023-04-16T18:41:28.095Z,101570.94
2023-04-16T18:43:54.967Z,101575.03
2023-04-16T18:46:21.785Z,101580.31
2023-04-16T18:48:48.521Z,101590.91
2023-04-16T18:51:16.372Z,101588.88
2023-04-16T18:53:45.677Z,101597.31
2023-04-16T18:56:12.975Z,101585.53
2023-04-16T18:58:39.793Z,101588.50
2023-04-16T19:01:11.318Z,101591.56
2023-04-16T19:03:38.691Z,101589.16
2023-04-16T19:06:06.382Z,101591.00
2023-04-16T19:08:33.256Z,101595.16
2023-04-16T19:11:05.100Z,101590.28
2023-04-16T19:13:37.283Z,101586.91
2023-04-16T19:16:06.148Z,101599.72
2023-04-16T19:18:38.635Z,101593.84
2023-04-16T19:21:10.066Z,101589.28
2023-04-16T19:23:45.385Z,101607.63
2023-04-16T19:26:22.152Z,101592.19
2023-04-16T19:29:01.543Z,101599.78
2023-04-16T19:31:42.699Z,101606.84
2023-04-16T19:34:29.722Z,101609.09
2023-04-16T19:37:07.279Z,101598.84
2023-04-16T19:39:33.900Z,101601.97
2023-04-16T19:42:10.478Z,101601.91
2023-04-16T19:44:53.188Z,101608.63
2023-04-16T19:47:25.371Z,101598.59
2023-04-16T19:52:55.088Z,101612.13
2023-04-16T19:55:29.278Z,101602.94
2023-04-16T19:58:05.687Z,101613.19
2023-04-16T20:00:36.677Z,101607.97
2023-04-16T20:03:17.771Z,101608.25
2023-04-16T20:05:51.585Z,101618.53
2023-04-16T20:08:23.417Z,101609.03
2023-04-16T20:10:56.669Z,101616.78
2023-04-16T20:13:39.483Z,101623.69
2023-04-16T20:16:10.508Z,101616.59
2023-04-16T20:18:41.713Z,101622.53
2023-04-16T20:21:12.723Z,101618.41
2023-04-16T20:23:45.087Z,101612.72
2023-04-16T20:26:18.492Z,101614.75
2023-04-16T20:28:52.322Z,101618.94
2023-04-16T20:31:25.952Z,101635.25
2023-04-16T20:34:05.532Z,101623.63
2023-04-16T20:36:38.050Z,101624.13
2023-04-16T20:39:13.116Z,101633.34
2023-04-16T20:41:47.910Z,101631.91
2023-04-16T20:44:19.060Z,101637.72
2023-04-16T20:46:59.207Z,101631.00
2023-04-16T20:49:33.897Z,101632.06
2023-04-16T20:52:05.057Z,101628.66
2023-04-16T20:54:38.946Z,101631.84
2023-04-16T20:57:11.802Z,101638.81
2023-04-16T20:59:41.384Z,101641.38
2023-04-16T21:02:11.705Z,101624.28
2023-04-16T21:04:41.840Z,101641.88
2023-04-16T21:07:08.556Z,101645.00
2023-04-16T21:09:41.980Z,101648.94
2023-04-16T21:12:09.543Z,101649.72
2023-04-16T21:14:49.325Z,101634.78
2023-04-16T21:17:29.468Z,101648.13
2023-04-16T21:20:23.291Z,101637.94
2023-04-16T21:23:03.143Z,101640.50
2023-04-16T21:25:33.716Z,101641.78
2023-04-16T21:28:00.662Z,101643.00
2023-04-16T21:30:33.341Z,101641.13
2023-04-16T21:33:17.347Z,101644.38
2023-04-16T21:35:44.165Z,101643.66
2023-04-16T21:38:10.881Z,101627.19
2023-04-16T21:40:46.633Z,101629.84
2023-04-16T21:43:14.147Z,101623.84
2023-04-16T21:45:41.016Z,101636.00
2023-04-16T21:48:12.974Z,101643.78
2023-04-16T21:50:39.846Z,101639.38
2023-04-16T21:53:09.859Z,101637.75
2023-04-16T21:55:55.374Z,101634.94
2023-04-16T21:58:27.043Z,101645.00
2023-04-16T22:00:58.005Z,101644.53
2023-04-16T22:03:31.212Z,101643.78
2023-04-16T22:06:07.544Z,101647.84
2023-04-16T22:08:36.847Z,101645.47
2023-04-16T22:11:17.719Z,101647.59
2023-04-16T22:13:57.691Z,101644.06
2023-04-16T22:16:28.809Z,101646.25
2023-04-16T22:19:00.176Z,101643.59
2023-04-16T22:21:36.311Z,101647.66
2023-04-16T22:24:02.962Z,101636.34
2023-04-16T22:26:43.134Z,101644.16
2023-04-16T22:29:25.431Z,101648.66
2023-04-16T22:32:02.107Z,101655.72
2023-04-16T22:34:34.153Z,101647.91
2023-04-16T22:37:03.033Z,101655.16
2023-04-16T22:39:32.953Z,101658.06
2023-04-16T22:42:14.012Z,101654.06
2023-04-16T22:44:44.058Z,101654.94
2023-04-16T22:47:20.048Z,101660.53
2023-04-16T22:50:10.847Z,101662.66
2023-04-16T22:52:37.552Z,101670.22
2023-04-16T22:55:05.231Z,101659.44
2023-04-16T22:58:07.815Z,101658.06
2023-04-16T23:00:37.061Z,101649.75
2023-04-16T23:03:09.123Z,101658.13
2023-04-16T23:05:43.545Z,101649.56
2023-04-16T23:08:15.346Z,101648.50
2023-04-16T23:10:47.028Z,101649.06
2023-04-16T23:13:14.031Z,101651.44
2023-04-16T23:15:40.916Z,101660.78
2023-04-16T23:18:15.810Z,101658.06
2023-04-16T23:20:42.531Z,101651.19
2023-04-16T23:23:09.305Z,101659.59
2023-04-16T23:25:36.080Z,101663.16
2023-04-16T23:28:02.869Z,101664.00
2023-04-16T23:30:29.469Z,101654.50
2023-04-16T23:32:56.355Z,101658.13
2023-04-16T23:35:23.178Z,101656.72
2023-04-16T23:37:55.741Z,101661.91
2023-04-16T23:40:22.671Z,101658.69
2023-04-16T23:42:49.339Z,101661.72
2023-04-16T23:45:16.238Z,101660.00
2023-04-16T23:47:42.972Z,101656.03
2023-04-16T23:50:09.937Z,101651.66
2023-04-16T23:52:36.759Z,101661.91
2023-04-16T23:55:03.546Z,101656.03
2023-04-16T23:57:30.877Z,101656.72
2023-04-16T23:59:57.518Z,101663.38
